createdAt,value
2018-05-01T00:22:54.451Z,34.03
2018-05-01T00:25:23.594Z,32.43
2018-05-01T00:27:52.018Z,28.03
2018-05-01T00:30:20.443Z,31.67
2018-05-01T00:32:48.827Z,31.57
2018-05-01T00:35:17.285Z,34.85
2018-05-01T00:37:45.695Z,33.77
2018-05-01T00:40:14.286Z,30.67
2018-05-01T00:42:42.860Z,33.30
2018-05-01T00:45:13.049Z,28.77
2018-05-01T00:47:41.483Z,29.53
2018-05-01T00:50:10.071Z,27.62
2018-05-01T00:52:44.199Z,26.73
2018-05-01T00:55:12.612Z,33.70
2018-05-01T00:57:41.050Z,30.03
2018-05-01T01:00:10.374Z,29.77
2018-05-01T01:02:38.966Z,27.37
2018-05-01T01:05:07.538Z,30.60
2018-05-01T01:07:36.898Z,30.65
2018-05-01T01:10:05.363Z,25.57
2018-05-01T01:12:34.560Z,25.40
2018-05-01T01:15:03.046Z,24.43
2018-05-01T01:17:31.635Z,26.70
2018-05-01T01:20:00.015Z,24.63
2018-05-01T01:22:29.534Z,20.73
2018-05-01T01:24:58.118Z,26.35
2018-05-01T01:27:26.523Z,27.30
2018-05-01T01:29:54.927Z,24.57
2018-05-01T01:32:23.528Z,24.57
2018-05-01T01:34:51.927Z,24.47
2018-05-01T01:37:19.886Z,22.63
2018-05-01T01:39:47.988Z,22.30
2018-05-01T01:42:15.883Z,22.67
2018-05-01T01:44:43.767Z,24.70
2018-05-01T01:47:12.004Z,25.00
2018-05-01T01:49:40.755Z,20.43
2018-05-01T01:52:08.802Z,21.50
2018-05-01T01:54:37.507Z,19.83
2018-05-01T01:57:05.495Z,20.17
2018-05-01T01:59:35.081Z,25.00
2018-05-01T02:02:03.033Z,18.93
2018-05-01T02:04:31.124Z,18.43
2018-05-01T02:06:59.838Z,20.33
2018-05-01T02:09:27.923Z,17.80
2018-05-01T02:11:55.851Z,18.30
2018-05-01T02:14:23.778Z,18.93
2018-05-01T02:16:51.803Z,20.57
2018-05-01T02:19:19.699Z,19.47
2018-05-01T02:21:47.633Z,18.62
2018-05-01T02:24:15.630Z,17.80
2018-05-01T02:26:43.842Z,18.37
2018-05-01T02:29:11.874Z,19.97
2018-05-01T02:31:39.951Z,22.77
2018-05-01T02:34:08.062Z,21.13
2018-05-01T02:36:35.967Z,19.63
2018-05-01T02:39:03.898Z,21.73
2018-05-01T02:41:31.775Z,17.87
2018-05-01T02:43:59.851Z,17.47
2018-05-01T02:46:27.915Z,21.20
2018-05-01T02:48:55.999Z,21.07
2018-05-01T02:51:23.919Z,21.35
2018-05-01T02:53:51.995Z,20.43
2018-05-01T02:56:20.659Z,17.70
2018-05-01T02:58:48.611Z,22.57
2018-05-01T03:01:18.149Z,21.83
2018-05-01T03:03:46.046Z,25.10
2018-05-01T03:06:14.308Z,17.97
2018-05-01T03:08:42.984Z,18.53
2018-05-01T03:11:11.067Z,25.07
2018-05-01T03:13:39.155Z,18.73
2018-05-01T03:16:07.043Z,21.70
2018-05-01T03:18:34.967Z,20.27
2018-05-01T03:21:02.903Z,21.80
2018-05-01T03:23:30.804Z,17.37
2018-05-01T03:25:58.787Z,21.02
2018-05-01T03:28:27.491Z,19.23
2018-05-01T03:30:55.387Z,21.03
2018-05-01T03:33:24.090Z,19.60
2018-05-01T03:35:52.011Z,18.23
2018-05-01T03:38:19.907Z,20.13
2018-05-01T03:40:47.806Z,19.50
2018-05-01T03:43:16.463Z,18.98
2018-05-01T03:45:44.394Z,20.83
2018-05-01T03:48:12.322Z,21.42
2018-05-01T03:53:20.265Z,20.20
2018-05-01T03:55:48.964Z,24.03
2018-05-01T03:58:17.739Z,20.50
2018-05-01T04:00:46.436Z,19.43
2018-05-01T04:03:15.111Z,19.57
2018-05-01T04:05:43.035Z,18.60
2018-05-01T04:08:11.750Z,19.87
2018-05-01T04:10:39.631Z,23.73
2018-05-01T04:13:08.377Z,29.00
2018-05-01T04:15:36.276Z,27.27
2018-05-01T04:18:04.176Z,24.10
2018-05-01T04:20:32.067Z,29.00
2018-05-01T04:22:59.998Z,23.43
2018-05-01T04:25:28.155Z,27.03
2018-05-01T04:27:55.999Z,27.50
2018-05-01T04:30:24.090Z,26.93
2018-05-01T04:32:51.994Z,32.20
2018-05-01T04:35:19.955Z,32.63
2018-05-01T04:37:47.854Z,26.13
2018-05-01T04:40:15.935Z,38.60
2018-05-01T04:42:43.826Z,26.40
2018-05-01T04:45:11.749Z,32.60
2018-05-01T04:47:39.647Z,40.40
2018-05-01T04:50:07.591Z,58.25
2018-05-01T04:52:35.482Z,39.77
2018-05-01T04:55:03.491Z,33.73
2018-05-01T04:57:31.395Z,36.07
2018-05-01T04:59:59.323Z,41.77
2018-05-01T05:02:28.010Z,47.70
2018-05-01T05:04:55.983Z,32.63
2018-05-01T05:07:23.884Z,26.40
2018-05-01T05:09:51.815Z,28.80
2018-05-01T05:12:19.783Z,26.30
2018-05-01T05:14:47.871Z,29.57
2018-05-01T05:17:16.001Z,35.00
2018-05-01T05:19:43.979Z,44.20
2018-05-01T05:22:12.823Z,39.67
2018-05-01T05:24:40.766Z,32.20
2018-05-01T05:27:09.607Z,32.23
2018-05-01T05:29:38.310Z,26.17
2018-05-01T05:32:06.384Z,28.60
2018-05-01T05:34:34.339Z,25.70
2018-05-01T05:37:02.431Z,27.60
2018-05-01T05:39:30.375Z,28.10
2018-05-01T05:41:58.271Z,23.92
2018-05-01T05:44:26.188Z,20.63
2018-05-01T05:46:56.728Z,23.02
2018-05-01T05:49:25.586Z,23.03
2018-05-01T05:51:53.695Z,23.67
2018-05-01T05:54:21.734Z,25.33
2018-05-01T05:56:49.530Z,24.98
2018-05-01T05:59:17.521Z,21.70
2018-05-01T06:01:46.375Z,22.23
2018-05-01T06:04:14.779Z,25.42
2018-05-01T06:06:43.445Z,22.80
2018-05-01T06:09:11.391Z,22.07
2018-05-01T06:11:39.295Z,21.50
2018-05-01T06:14:07.202Z,17.77
2018-05-01T06:16:35.943Z,18.27
2018-05-01T06:19:04.651Z,18.37
2018-05-01T06:21:32.582Z,17.92
2018-05-01T06:24:00.503Z,16.93
2018-05-01T06:26:28.446Z,18.70
2018-05-01T06:28:56.359Z,19.13
2018-05-01T06:31:24.495Z,22.33
2018-05-01T06:33:52.386Z,19.93
2018-05-01T06:36:21.086Z,20.93
2018-05-01T06:38:49.806Z,21.83
2018-05-01T06:41:18.672Z,21.47
2018-05-01T06:43:46.557Z,23.77
2018-05-01T06:46:15.243Z,23.73
2018-05-01T06:51:07.730Z,25.83
2018-05-01T06:53:35.690Z,23.63
2018-05-01T06:56:04.654Z,24.17
2018-05-01T06:58:32.559Z,27.37
2018-05-01T07:01:00.673Z,23.60
2018-05-01T07:03:29.518Z,25.70
2018-05-01T07:05:58.219Z,26.73
2018-05-01T07:08:26.157Z,22.95
2018-05-01T07:10:54.081Z,29.43
2018-05-01T07:13:22.786Z,22.70
2018-05-01T07:15:52.192Z,25.67
2018-05-01T07:18:20.080Z,26.17
2018-05-01T07:20:48.937Z,21.57
2018-05-01T07:23:16.868Z,25.23
2018-05-01T07:25:44.744Z,24.40
2018-05-01T07:28:12.668Z,21.40
2018-05-01T07:30:41.530Z,22.37
2018-05-01T07:33:10.243Z,20.70
2018-05-01T07:35:39.548Z,16.90
2018-05-01T07:38:07.438Z,17.50
2018-05-01T07:40:35.515Z,13.93
2018-05-01T07:43:04.195Z,14.50
2018-05-01T07:45:32.163Z,12.60
2018-05-01T07:48:00.234Z,12.57
2018-05-01T07:50:28.307Z,10.60
2018-05-01T07:52:56.196Z,10.47
2018-05-01T07:55:24.874Z,14.03
2018-05-01T07:57:52.802Z,10.10
2018-05-01T08:00:20.770Z,8.93
2018-05-01T08:02:49.556Z,8.40
2018-05-01T08:05:18.391Z,8.47
2018-05-01T08:07:46.262Z,7.80
2018-05-01T08:10:14.327Z,7.93
2018-05-01T08:12:42.226Z,7.40
2018-05-01T08:15:10.275Z,9.80
2018-05-01T08:17:38.332Z,9.70
2018-05-01T08:20:06.275Z,8.80
2018-05-01T08:22:34.939Z,6.32
2018-05-01T08:25:02.978Z,12.20
2018-05-01T08:27:31.087Z,7.23
2018-05-01T08:29:59.130Z,5.60
2018-05-01T08:32:27.667Z,8.85
2018-05-01T08:34:55.604Z,5.57
2018-05-01T08:37:23.686Z,22.17
2018-05-01T08:39:51.596Z,4.30
2018-05-01T08:42:19.634Z,4.93
2018-05-01T08:44:47.507Z,5.77
2018-05-01T08:47:15.379Z,4.37
2018-05-01T08:49:43.431Z,3.70
2018-05-01T08:52:12.269Z,4.43
2018-05-01T08:54:40.164Z,3.10
2018-05-01T08:57:08.050Z,4.70
2018-05-01T08:59:36.371Z,4.20
2018-05-01T09:02:04.423Z,5.63
2018-05-01T09:04:32.295Z,6.07
2018-05-01T09:07:02.501Z,2.70
2018-05-01T09:09:31.185Z,2.10
2018-05-01T09:11:59.211Z,1.80
2018-05-01T09:14:28.059Z,1.87
2018-05-01T09:16:56.006Z,2.23
2018-05-01T09:19:23.927Z,2.85
2018-05-01T09:21:51.886Z,15.33
2018-05-01T09:24:20.515Z,1.80
2018-05-01T09:26:48.439Z,3.57
2018-05-01T09:29:17.079Z,1.47
2018-05-01T09:31:45.872Z,1.57
2018-05-01T09:34:13.883Z,1.63
2018-05-01T09:36:41.847Z,4.12
2018-05-01T09:39:09.718Z,13.93
2018-05-01T09:41:37.619Z,5.13
2018-05-01T09:44:06.299Z,2.67
2018-05-01T09:46:34.419Z,3.83
2018-05-01T09:49:02.307Z,2.87
2018-05-01T09:51:30.511Z,4.12
2018-05-01T09:53:58.896Z,1.67
2018-05-01T09:56:27.440Z,4.83
2018-05-01T10:01:36.490Z,6.40
2018-05-01T10:04:04.895Z,2.67
2018-05-01T10:06:33.447Z,2.43
2018-05-01T10:09:01.836Z,2.70
2018-05-01T10:11:30.235Z,1.40
2018-05-01T10:13:59.347Z,2.55
2018-05-01T10:16:27.731Z,1.20
2018-05-01T10:18:56.935Z,1.63
2018-05-01T10:21:25.507Z,1.27
2018-05-01T10:23:53.874Z,0.97
2018-05-01T10:26:22.242Z,2.15
2018-05-01T10:28:50.648Z,4.03
2018-05-01T10:31:19.088Z,2.00
2018-05-01T10:33:48.239Z,1.00
2018-05-01T10:36:17.339Z,1.20
2018-05-01T10:38:45.747Z,3.40
2018-05-01T10:41:14.086Z,1.20
2018-05-01T10:43:42.486Z,2.15
2018-05-01T10:46:10.861Z,7.13
2018-05-01T10:48:40.668Z,3.45
2018-05-01T10:51:09.799Z,1.30
2018-05-01T10:53:39.051Z,1.30
2018-05-01T10:56:08.199Z,0.93
2018-05-01T10:58:38.133Z,3.15
2018-05-01T11:01:07.339Z,2.40
2018-05-01T11:03:35.735Z,2.00
2018-05-01T11:06:04.151Z,2.17
2018-05-01T11:08:32.555Z,1.57
2018-05-01T11:11:00.921Z,3.53
2018-05-01T11:13:30.081Z,1.80
2018-05-01T11:15:58.447Z,1.20
2018-05-01T11:18:26.837Z,4.30
2018-05-01T11:23:38.149Z,1.47
2018-05-01T11:26:07.360Z,1.90
2018-05-01T11:28:35.749Z,1.43
2018-05-01T11:31:04.302Z,2.50
2018-05-01T11:33:32.766Z,0.97
2018-05-01T11:36:01.102Z,2.73
2018-05-01T11:38:29.454Z,2.30
2018-05-01T11:40:57.875Z,1.63
2018-05-01T11:43:26.239Z,6.15
2018-05-01T11:45:55.351Z,1.33
2018-05-01T11:48:25.335Z,1.00
2018-05-01T11:50:53.700Z,2.60
2018-05-01T11:53:22.135Z,2.57
2018-05-01T11:55:51.307Z,1.40
2018-05-01T11:58:19.657Z,1.73
2018-05-01T12:00:48.866Z,1.90
2018-05-01T12:03:17.255Z,2.60
2018-05-01T12:05:45.627Z,1.47
2018-05-01T12:08:14.027Z,1.70
2018-05-01T12:10:43.063Z,8.13
2018-05-01T12:13:11.477Z,1.20
2018-05-01T12:15:39.887Z,1.20
2018-05-01T12:18:08.423Z,0.90
2018-05-01T12:20:36.816Z,1.50
2018-05-01T12:23:05.415Z,1.17
2018-05-01T12:25:33.972Z,4.50
2018-05-01T12:28:02.547Z,10.73
2018-05-01T12:30:31.143Z,2.37
2018-05-01T12:33:00.755Z,1.10
2018-05-01T12:35:29.131Z,1.35
2018-05-01T12:37:57.698Z,1.77
2018-05-01T12:40:26.279Z,2.90
2018-05-01T12:42:55.405Z,2.17
2018-05-01T12:45:24.706Z,1.15
2018-05-01T12:47:53.095Z,0.60
2018-05-01T12:50:22.398Z,3.95
2018-05-01T12:52:51.727Z,0.67
2018-05-01T12:55:20.147Z,1.23
2018-05-01T12:57:48.641Z,2.23
2018-05-01T13:00:17.775Z,2.00
2018-05-01T13:02:46.158Z,2.30
2018-05-01T13:05:15.581Z,0.65
2018-05-01T13:07:44.060Z,0.67
2018-05-01T13:10:12.456Z,1.50
2018-05-01T13:12:41.044Z,1.00
2018-05-01T13:15:09.511Z,0.70
2018-05-01T13:17:37.920Z,1.23
2018-05-01T13:20:06.593Z,2.33
2018-05-01T13:22:35.021Z,4.07
2018-05-01T13:25:03.424Z,3.43
2018-05-01T13:27:31.870Z,1.27
2018-05-01T13:30:00.258Z,1.47
2018-05-01T13:32:28.826Z,1.30
2018-05-01T13:34:57.231Z,0.60
2018-05-01T13:37:25.787Z,1.53
2018-05-01T13:39:55.011Z,1.43
2018-05-01T13:42:23.692Z,7.57
2018-05-01T13:44:52.059Z,2.03
2018-05-01T13:47:20.435Z,1.10
2018-05-01T13:49:49.376Z,0.55
2018-05-01T13:52:17.920Z,0.53
2018-05-01T13:54:46.287Z,1.00
2018-05-01T13:57:15.509Z,0.62
2018-05-01T13:59:44.003Z,1.00
2018-05-01T14:02:13.335Z,0.65
2018-05-01T14:04:41.743Z,0.73
2018-05-01T14:07:10.276Z,6.90
2018-05-01T14:09:38.642Z,6.47
2018-05-01T14:12:07.040Z,1.60
2018-05-01T14:14:35.434Z,1.93
2018-05-01T14:17:03.991Z,1.27
2018-05-01T14:19:33.180Z,0.50
2018-05-01T14:22:01.544Z,0.60
2018-05-01T14:24:29.942Z,0.50
2018-05-01T14:26:58.346Z,1.87
2018-05-01T14:29:28.317Z,0.40
2018-05-01T14:31:57.573Z,1.70
2018-05-01T14:34:26.025Z,2.37
2018-05-01T14:36:55.200Z,0.93
2018-05-01T14:39:23.566Z,0.30
2018-05-01T14:41:52.067Z,3.87
2018-05-01T14:44:20.443Z,3.80
2018-05-01T14:46:48.967Z,0.97
2018-05-01T14:49:18.122Z,2.00
2018-05-01T14:51:48.369Z,3.62
2018-05-01T14:54:16.735Z,2.00
2018-05-01T14:56:45.118Z,1.43
2018-05-01T14:59:13.496Z,0.98
2018-05-01T15:01:41.890Z,1.03
2018-05-01T15:04:10.282Z,1.42
2018-05-01T15:06:38.647Z,3.13
2018-05-01T15:09:07.246Z,29.40
2018-05-01T15:11:35.798Z,3.10
2018-05-01T15:14:05.649Z,2.30
2018-05-01T15:16:34.863Z,2.90
2018-05-01T15:19:03.247Z,1.73
2018-05-01T15:21:31.662Z,3.90
2018-05-01T15:24:00.025Z,1.90
2018-05-01T15:26:28.417Z,2.42
2018-05-01T15:28:56.787Z,1.53
2018-05-01T15:31:27.199Z,1.12
2018-05-01T15:33:55.599Z,2.50
2018-05-01T15:36:24.139Z,1.47
2018-05-01T15:38:52.526Z,3.65
2018-05-01T15:41:20.935Z,1.47
2018-05-01T15:43:49.310Z,1.67
2018-05-01T15:46:17.680Z,2.47
2018-05-01T15:48:46.835Z,2.87
2018-05-01T15:51:15.273Z,3.43
2018-05-01T15:53:46.343Z,1.20
2018-05-01T15:56:15.454Z,1.00
2018-05-01T15:58:43.816Z,2.00
2018-05-01T16:01:12.228Z,1.23
2018-05-01T16:03:40.632Z,3.07
2018-05-01T16:06:08.994Z,3.33
2018-05-01T16:08:37.359Z,1.40
2018-05-01T16:11:05.770Z,1.90
2018-05-01T16:13:34.943Z,4.50
2018-05-01T16:16:03.768Z,2.40
2018-05-01T16:18:32.114Z,1.47
2018-05-01T16:21:00.502Z,1.70
2018-05-01T16:23:29.857Z,0.80
2018-05-01T16:25:59.007Z,2.03
2018-05-01T16:28:28.323Z,1.92
2018-05-01T16:30:57.171Z,3.00
2018-05-01T16:33:26.212Z,0.70
2018-05-01T16:35:54.633Z,0.93
2018-05-01T16:38:23.011Z,1.10
2018-05-01T16:40:52.183Z,0.97
2018-05-01T16:43:21.483Z,10.03
2018-05-01T16:45:50.811Z,3.45
2018-05-01T16:48:19.162Z,3.20
2018-05-01T16:50:47.523Z,2.75
2018-05-01T16:53:15.894Z,18.13
2018-05-01T16:55:44.313Z,1.63
2018-05-01T16:58:12.681Z,2.03
2018-05-01T17:00:41.071Z,1.67
2018-05-01T17:03:10.219Z,2.30
2018-05-01T17:05:38.754Z,4.00
2018-05-01T17:08:07.308Z,4.35
2018-05-01T17:10:36.510Z,1.97
2018-05-01T17:13:06.160Z,2.05
2018-05-01T17:15:34.530Z,9.13
2018-05-01T17:20:46.813Z,4.67
2018-05-01T17:23:15.364Z,6.23
2018-05-01T17:25:44.660Z,2.20
2018-05-01T17:28:13.919Z,1.93
2018-05-01T17:30:43.079Z,3.17
2018-05-01T17:33:12.374Z,1.77
2018-05-01T17:35:40.758Z,3.17
2018-05-01T17:38:09.868Z,5.13
2018-05-01T17:40:38.233Z,1.50
2018-05-01T17:43:07.371Z,1.73
2018-05-01T17:45:37.251Z,3.47
2018-05-01T17:48:05.611Z,11.90
2018-05-01T17:50:34.170Z,2.03
2018-05-01T17:53:02.722Z,2.37
2018-05-01T17:55:31.823Z,1.77
2018-05-01T17:58:01.143Z,2.35
2018-05-01T18:00:29.519Z,2.23
2018-05-01T18:02:57.896Z,1.60
2018-05-01T18:05:26.415Z,2.97
2018-05-01T18:07:56.367Z,1.48
2018-05-01T18:10:24.855Z,3.10
2018-05-01T18:12:53.221Z,4.33
2018-05-01T18:15:21.815Z,2.00
2018-05-01T18:17:50.352Z,1.90
2018-05-01T18:20:18.782Z,1.80
2018-05-01T18:22:47.253Z,3.42
2018-05-01T18:25:15.795Z,1.90
2018-05-01T18:27:44.323Z,2.30
2018-05-01T18:30:12.700Z,2.23
2018-05-01T18:32:41.255Z,2.37
2018-05-01T18:35:09.714Z,2.17
2018-05-01T18:37:38.258Z,3.17
2018-05-01T18:40:06.646Z,2.20
2018-05-01T18:42:35.105Z,3.20
2018-05-01T18:45:03.466Z,6.43
2018-05-01T18:47:31.844Z,3.80
2018-05-01T18:50:00.984Z,3.00
2018-05-01T18:52:30.687Z,3.47
2018-05-01T18:54:59.079Z,9.77
2018-05-01T18:57:27.442Z,3.40
2018-05-01T18:59:55.924Z,4.73
2018-05-01T19:02:24.333Z,7.13
2018-05-01T19:04:53.315Z,6.20
2018-05-01T19:07:21.903Z,8.47
2018-05-01T19:09:50.304Z,6.40
2018-05-01T19:12:18.815Z,6.50
2018-05-01T19:14:48.726Z,7.57
2018-05-01T19:17:17.276Z,5.53
2018-05-01T19:19:45.688Z,6.00
2018-05-01T19:22:14.148Z,4.57
2018-05-01T19:24:43.304Z,5.57
2018-05-01T19:27:12.237Z,5.97
2018-05-01T19:29:41.476Z,5.23
2018-05-01T19:32:09.841Z,5.00
2018-05-01T19:34:38.276Z,6.53
2018-05-01T19:37:06.815Z,5.30
2018-05-01T19:39:35.285Z,5.93
2018-05-01T19:44:38.341Z,6.43
2018-05-01T19:47:06.731Z,5.80
2018-05-01T19:49:35.189Z,4.80
2018-05-01T19:52:03.721Z,4.60
2018-05-01T19:54:32.132Z,4.30
2018-05-01T19:57:00.675Z,5.53
2018-05-01T19:59:29.068Z,4.47
2018-05-01T20:01:57.619Z,4.45
2018-05-01T20:04:26.201Z,4.47
2018-05-01T20:06:54.599Z,4.97
2018-05-01T20:09:24.343Z,3.50
2018-05-01T20:11:53.482Z,4.20
2018-05-01T20:14:22.602Z,3.73
2018-05-01T20:16:50.961Z,3.30
2018-05-01T20:19:20.108Z,3.30
2018-05-01T20:21:49.399Z,3.27
2018-05-01T20:24:17.750Z,3.42
2018-05-01T20:26:46.166Z,3.83
2018-05-01T20:29:14.547Z,3.87
2018-05-01T20:31:45.743Z,3.77
2018-05-01T20:34:15.205Z,3.50
2018-05-01T20:36:43.547Z,3.47
2018-05-01T20:39:12.711Z,3.40
2018-05-01T20:41:41.326Z,4.77
2018-05-01T20:44:09.706Z,3.80
2018-05-01T20:46:38.798Z,3.78
2018-05-01T20:49:07.391Z,4.40
2018-05-01T20:51:35.943Z,3.63
2018-05-01T20:54:04.691Z,3.40
2018-05-01T20:56:33.255Z,3.47
2018-05-01T20:59:01.829Z,3.50
2018-05-01T21:01:30.188Z,3.20
2018-05-01T21:03:58.595Z,3.70
2018-05-01T21:06:26.960Z,3.90
2018-05-01T21:08:55.331Z,3.78
2018-05-01T21:11:23.819Z,3.20
2018-05-01T21:13:52.196Z,3.30
2018-05-01T21:16:21.307Z,3.60
2018-05-01T21:18:49.701Z,4.07
2018-05-01T21:21:18.127Z,3.60
2018-05-01T21:23:46.672Z,3.57
2018-05-01T21:26:15.043Z,4.20
2018-05-01T21:28:43.527Z,3.53
2018-05-01T21:31:14.490Z,5.00
2018-05-01T21:33:42.887Z,4.40
2018-05-01T21:36:11.245Z,4.93
2018-05-01T21:38:39.636Z,4.60
2018-05-01T21:41:08.064Z,4.63
2018-05-01T21:43:36.627Z,5.60
2018-05-01T21:46:05.030Z,5.03
2018-05-01T21:48:33.385Z,6.53
2018-05-01T21:51:01.771Z,7.10
2018-05-01T21:53:30.153Z,6.17
2018-05-01T21:55:58.532Z,5.20
2018-05-01T21:58:26.907Z,6.63
2018-05-01T22:00:55.291Z,6.65
2018-05-01T22:03:23.710Z,6.13
2018-05-01T22:05:52.865Z,5.50
2018-05-01T22:08:22.216Z,6.20
2018-05-01T22:10:53.012Z,6.80
2018-05-01T22:13:21.415Z,6.37
2018-05-01T22:15:49.972Z,5.53
2018-05-01T22:18:19.283Z,5.00
2018-05-01T22:20:47.696Z,5.27
2018-05-01T22:23:16.135Z,5.20
2018-05-01T22:25:44.552Z,5.67
2018-05-01T22:28:13.897Z,4.60
2018-05-01T22:30:43.159Z,6.10
2018-05-01T22:33:12.476Z,5.20
2018-05-01T22:35:40.989Z,5.07
2018-05-01T22:38:09.562Z,4.43
2018-05-01T22:40:39.207Z,4.85
2018-05-01T22:43:07.561Z,5.23
2018-05-01T22:45:36.105Z,5.50
2018-05-01T22:48:04.681Z,5.40
2018-05-01T22:50:33.119Z,5.23
2018-05-01T22:53:01.653Z,4.83
2018-05-01T22:55:30.085Z,5.60
2018-05-01T22:57:58.531Z,5.17
2018-05-01T23:00:27.859Z,5.10
2018-05-01T23:02:56.447Z,6.07
2018-05-01T23:05:24.826Z,5.33
2018-05-01T23:07:53.299Z,5.07
2018-05-01T23:10:22.650Z,5.43
2018-05-01T23:12:51.035Z,4.70
2018-05-01T23:15:19.487Z,5.30
2018-05-01T23:17:48.797Z,5.37
2018-05-01T23:20:18.332Z,5.30
2018-05-01T23:22:46.887Z,5.03
2018-05-01T23:25:15.407Z,5.87
2018-05-01T23:27:44.707Z,5.17
2018-05-01T23:30:14.011Z,4.70
2018-05-01T23:32:43.195Z,5.30
2018-05-01T23:35:12.287Z,6.73
2018-05-01T23:37:40.691Z,4.77
2018-05-01T23:40:09.082Z,5.00
2018-05-01T23:42:37.485Z,5.18
2018-05-01T23:45:05.851Z,5.53
2018-05-01T23:47:34.283Z,5.70
2018-05-01T23:50:03.429Z,6.03
2018-05-01T23:52:32.591Z,6.10
2018-05-01T23:55:01.017Z,5.80
2018-05-01T23:57:29.575Z,5.80
2018-05-01T23:59:57.966Z,4.93
